Time;durP1;ratioP1;P1;durP2;ratioP2;P2;SDS_P1;SDS_P2;PMS_P1;PMS_P2;Temp;Humidity;BMP_temperature;BMP_pressure;BME280_temperature;BME280_humidity;BME280_pressure;Samples;Min_cycle;Max_cycle;Signal;HPM_P1;HPM_P2
2022/01/24 00:02:02;;;;;;;;;;;;;;;21.38;24.50;97155.84;10460586;28;1902;-52
2022/01/24 00:07:04;;;;;;;;;;;;;;;21.38;24.99;97145.31;10464062;28;1906;-55
2022/01/24 00:12:16;;;;;;;;;;;;;;;21.39;25.04;97148.75;10465524;28;1763;-55
2022/01/24 00:28:08;;;;;;;;;;;;;;;21.37;25.24;97151.59;10463911;28;1863;-53
2022/01/24 00:33:09;;;;;;;;;;;;;;;21.39;24.97;97154.03;10461390;28;1961;-56
2022/01/24 00:38:10;;;;;;;;;;;;;;;21.39;24.53;97143.47;10464145;28;1858;-55
2022/01/24 00:43:26;;;;;;;;;;;;;;;21.40;24.87;97137.13;10455824;28;1894;-53
2022/01/24 00:48:38;;;;;;;;;;;;;;;21.37;24.58;97135.78;10455046;28;1792;-54
2022/01/24 00:58:39;;;;;;;;;;;;;;;21.36;24.43;97128.13;10457757;28;1853;-51
2022/01/24 01:03:39;;;;;;;;;;;;;;;21.36;24.87;97126.28;10458920;28;1914;-55
2022/01/24 01:19:17;;;;;;;;;;;;;;;21.34;24.38;97117.81;10460032;28;1820;-56
2022/01/24 01:24:18;;;;;;;;;;;;;;;21.35;24.54;97121.28;10460406;28;1925;-52
2022/01/24 01:29:24;;;;;;;;;;;;;;;21.32;24.63;97112.00;10459560;28;1814;-54
2022/01/24 02:00:15;;;;;;;;;;;;;;;21.33;24.37;97099.63;10459507;28;1965;-53
2022/01/24 02:05:16;;;;;;;;;;;;;;;21.33;24.36;97099.63;10456375;28;1988;-55
2022/01/24 02:10:20;;;;;;;;;;;;;;;21.31;24.23;97099.06;10453773;28;2021;-55
2022/01/24 02:16:18;;;;;;;;;;;;;;;21.31;24.36;97102.47;10455814;28;1986;-51
2022/01/24 02:25:51;;;;;;;;;;;;;;;21.31;24.45;97078.75;10449875;28;1982;-54
2022/01/24 02:31:19;;;;;;;;;;;;;;;21.33;24.47;97066.09;10454444;28;1999;-51
2022/01/24 02:36:20;;;;;;;;;;;;;;;21.31;24.70;97056.88;10450963;28;1989;-52
2022/01/24 02:52:01;;;;;;;;;;;;;;;21.31;23.95;97035.78;10442250;28;1986;-56
2022/01/24 02:57:02;;;;;;;;;;;;;;;21.31;24.14;97030.50;10450201;28;1986;-56
2022/01/24 03:02:03;;;;;;;;;;;;;;;21.29;24.41;97022.81;10450475;28;1985;-53
2022/01/24 03:07:04;;;;;;;;;;;;;;;21.29;24.19;97022.03;10450102;28;2126;-55
2022/01/24 03:12:11;;;;;;;;;;;;;;;21.31;24.44;97026.00;10452542;28;1916;-54
2022/01/24 03:17:11;;;;;;;;;;;;;;;21.28;23.93;97021.22;10450126;28;1884;-56
2022/01/24 03:22:12;;;;;;;;;;;;;;;21.29;24.38;97016.75;10449859;28;1895;-53
2022/01/24 03:27:12;;;;;;;;;;;;;;;21.29;23.84;97016.75;10455526;28;1967;-52
2022/01/24 03:32:12;;;;;;;;;;;;;;;21.29;24.10;97006.22;10454653;28;1927;-54
2022/01/24 03:37:13;;;;;;;;;;;;;;;21.28;24.07;97004.59;10450458;28;1939;-54
2022/01/24 03:42:13;;;;;;;;;;;;;;;21.26;24.18;96998.78;10453776;28;1978;-54
2022/01/24 03:47:41;;;;;;;;;;;;;;;21.25;23.63;97002.44;10454266;28;1971;-51
2022/01/24 03:52:40;;;;;;;;;;;;;;;21.28;24.13;96992.22;10443061;28;2173;-56
2022/01/24 03:57:41;;;;;;;;;;;;;;;21.26;24.21;96991.66;10457353;28;1887;-57
2022/01/24 04:02:41;;;;;;;;;;;;;;;21.27;23.74;96992.47;10450601;28;1959;-55
2022/01/24 04:07:42;;;;;;;;;;;;;;;21.28;24.09;96988.78;10454904;28;2092;-55
2022/01/24 04:12:42;;;;;;;;;;;;;;;21.25;23.89;96974.25;10462897;28;2025;-56
2022/01/24 04:17:46;;;;;;;;;;;;;;;21.25;24.09;96974.25;10463327;28;2000;-56
2022/01/24 04:22:50;;;;;;;;;;;;;;;21.26;23.82;96965.31;10452409;28;2157;-55
2022/01/24 04:27:51;;;;;;;;;;;;;;;21.24;23.80;96975.28;10461173;28;1906;-55
2022/01/24 04:32:51;;;;;;;;;;;;;;;21.23;23.86;96980.78;10453748;28;1738;-52
2022/01/24 04:37:53;;;;;;;;;;;;;;;21.22;23.93;96980.03;10456845;28;1753;-54
2022/01/24 04:43:02;;;;;;;;;;;;;;;21.24;23.78;96985.03;10455973;28;1974;-53
2022/01/24 04:53:31;;;;;;;;;;;;;;;21.22;23.68;96981.84;10455869;28;1907;-56
2022/01/24 04:58:32;;;;;;;;;;;;;;;21.23;23.95;96980.78;10456904;28;2083;-52
2022/01/24 05:03:32;;;;;;;;;;;;;;;21.25;24.23;96981.34;10453305;28;2051;-54
2022/01/24 05:08:33;;;;;;;;;;;;;;;21.22;23.71;96989.78;10460952;28;2052;-56
2022/01/24 05:24:11;;;;;;;;;;;;;;;21.24;24.02;96987.69;10466572;28;1969;-52
2022/01/24 05:29:11;;;;;;;;;;;;;;;21.24;24.03;97000.88;10449601;28;1930;-55
2022/01/24 05:34:12;;;;;;;;;;;;;;;21.22;23.97;97001.13;10451894;28;1970;-56
2022/01/24 05:39:12;;;;;;;;;;;;;;;21.22;23.71;97010.88;10449367;28;2057;-53
2022/01/24 05:44:13;;;;;;;;;;;;;;;21.21;23.95;97001.34;10452707;28;1911;-56
2022/01/24 05:49:13;;;;;;;;;;;;;;;21.21;23.61;97004.78;10448391;28;2378;-54
2022/01/24 05:54:14;;;;;;;;;;;;;;;21.21;24.13;97001.34;10451589;28;2115;-51
2022/01/24 05:59:14;;;;;;;;;;;;;;;21.19;23.78;96998.16;10455851;28;1923;-55
2022/01/24 06:04:15;;;;;;;;;;;;;;;21.16;23.36;96996.03;10449946;28;1910;-53
2022/01/24 06:09:15;;;;;;;;;;;;;;;21.17;23.64;96995.78;10449305;28;1954;-55
2022/01/24 06:14:16;;;;;;;;;;;;;;;21.18;23.80;96999.22;10456212;28;1947;-55
2022/01/24 06:19:16;;;;;;;;;;;;;;;21.20;24.16;97008.47;10446099;28;1924;-53
2022/01/24 06:24:16;;;;;;;;;;;;;;;21.19;23.51;97006.06;10448318;28;1986;-54
2022/01/24 06:29:18;;;;;;;;;;;;;;;21.18;23.68;97015.84;10453896;28;1946;-56
2022/01/24 06:34:18;;;;;;;;;;;;;;;21.17;23.50;97022.16;10450386;28;1895;-56
2022/01/24 06:39:19;;;;;;;;;;;;;;;21.18;23.83;97031.66;10447245;28;2002;-54
2022/01/24 06:44:19;;;;;;;;;;;;;;;21.17;23.53;97031.88;10446143;28;2117;-57
2022/01/24 06:49:20;;;;;;;;;;;;;;;21.18;23.66;97041.41;10444669;28;1974;-53
2022/01/24 06:54:20;;;;;;;;;;;;;;;21.18;23.73;97036.13;10448548;28;1954;-55
2022/01/24 06:59:20;;;;;;;;;;;;;;;21.14;23.75;97035.03;10447514;28;1946;-55
2022/01/24 07:04:21;;;;;;;;;;;;;;;21.16;23.59;97043.50;10459154;28;1954;-54
2022/01/24 07:09:21;;;;;;;;;;;;;;;21.15;23.56;97053.25;10453592;28;1975;-54
2022/01/24 07:14:22;;;;;;;;;;;;;;;21.13;23.81;97057.16;10459948;28;1878;-54
2022/01/24 07:19:29;;;;;;;;;;;;;;;21.10;23.68;97055.03;10441225;28;1907;-53
2022/01/24 07:24:29;;;;;;;;;;;;;;;21.11;24.12;97061.88;10437869;28;1989;-52
2022/01/24 07:29:30;;;;;;;;;;;;;;;21.16;23.76;97065.41;10435993;28;2029;-55
2022/01/24 07:34:30;;;;;;;;;;;;;;;21.19;24.97;97058.81;10438655;28;2007;-53
2022/01/24 07:39:31;;;;;;;;;;;;;;;21.38;24.61;97060.09;10440313;28;1942;-56
2022/01/24 07:44:32;;;;;;;;;;;;;;;21.31;24.28;97068.19;10441750;28;1906;-57
2022/01/24 07:49:34;;;;;;;;;;;;;;;21.29;24.36;97074.78;10455020;28;2002;-62
2022/01/24 07:54:35;;;;;;;;;;;;;;;21.30;24.32;97087.72;10461725;28;1957;-59
2022/01/24 07:59:35;;;;;;;;;;;;;;;21.29;24.20;97083.47;10456634;28;1875;-56
2022/01/24 08:04:36;;;;;;;;;;;;;;;21.32;24.23;97084.81;10457452;28;2026;-55
2022/01/24 08:09:36;;;;;;;;;;;;;;;21.34;24.68;97082.72;10449554;28;2034;-56
2022/01/24 08:14:37;;;;;;;;;;;;;;;21.34;24.56;97085.38;10467212;28;1982;-56
2022/01/24 08:19:37;;;;;;;;;;;;;;;21.35;24.39;97076.44;10467449;28;1927;-56
2022/01/24 08:24:37;;;;;;;;;;;;;;;21.37;24.45;97090.16;10465105;28;2048;-56
2022/01/24 08:29:38;;;;;;;;;;;;;;;21.37;24.58;97098.09;10459065;28;1934;-56
2022/01/24 08:34:38;;;;;;;;;;;;;;;21.36;24.36;97093.84;10468943;28;1947;-58
2022/01/24 08:39:39;;;;;;;;;;;;;;;21.46;23.82;97092.13;10462552;28;1951;-57
2022/01/24 08:49:55;;;;;;;;;;;;;;;21.42;24.25;97100.75;10456823;28;2071;-56
2022/01/24 08:54:55;;;;;;;;;;;;;;;21.42;24.55;97098.13;10464110;28;2040;-56
2022/01/24 08:59:56;;;;;;;;;;;;;;;21.43;24.14;97102.38;10464674;28;1978;-56
2022/01/24 09:04:56;;;;;;;;;;;;;;;21.45;24.41;97097.66;10469707;28;1969;-56
2022/01/24 09:09:57;;;;;;;;;;;;;;;21.45;24.19;97108.97;10452479;28;1978;-58
2022/01/24 09:14:57;;;;;;;;;;;;;;;21.55;25.47;97110.94;10452955;28;1947;-57
2022/01/24 09:19:59;;;;;;;;;;;;;;;21.50;24.43;97119.59;10466360;28;1939;-55
2022/01/24 09:24:59;;;;;;;;;;;;;;;21.48;24.58;97120.88;10462027;28;1906;-56
2022/01/24 09:30:00;;;;;;;;;;;;;;;21.47;24.37;97124.56;10460398;28;1876;-57
2022/01/24 09:35:00;;;;;;;;;;;;;;;21.47;23.75;97128.03;10466889;28;1991;-56
2022/01/24 09:40:00;;;;;;;;;;;;;;;21.48;24.12;97131.44;10452351;28;2091;-56
2022/01/24 09:45:01;;;;;;;;;;;;;;;21.47;23.87;97128.03;10452835;28;2016;-54
2022/01/24 09:50:02;;;;;;;;;;;;;;;21.49;23.81;97131.22;10441534;28;1958;-58
2022/01/24 09:55:03;;;;;;;;;;;;;;;21.51;24.51;97133.59;10445288;28;1875;-55
2022/01/24 10:00:04;;;;;;;;;;;;;;;21.50;24.18;97134.63;10453846;28;1823;-56
2022/01/24 10:05:21;;;;;;;;;;;;;;;21.53;24.03;97142.06;10458167;28;1921;-53
2022/01/24 10:10:28;;;;;;;;;;;;;;;21.48;24.04;97142.00;10454784;28;1828;-56
2022/01/24 10:20:48;;;;;;;;;;;;;;;21.47;24.44;97140.41;10465380;28;1755;-53
2022/01/24 10:25:59;;;;;;;;;;;;;;;21.46;24.09;97136.16;10462958;28;1907;-55
2022/01/24 10:31:12;;;;;;;;;;;;;;;21.44;23.98;97131.13;10444834;28;1762;-55
2022/01/24 10:36:12;;;;;;;;;;;;;;;21.46;24.04;97133.53;10460842;28;1820;-55
2022/01/24 10:41:27;;;;;;;;;;;;;;;21.47;23.83;97116.66;10442118;28;1855;-56
2022/01/24 10:46:28;;;;;;;;;;;;;;;21.47;23.38;97117.47;10461157;28;2014;-55
2022/01/24 10:51:28;;;;;;;;;;;;;;;21.49;23.71;97123.28;10458029;28;1864;-55
2022/01/24 10:56:29;;;;;;;;;;;;;;;21.51;23.46;97117.75;10463046;28;1915;-56
2022/01/24 11:01:29;;;;;;;;;;;;;;;21.54;24.09;97115.41;10453234;28;1814;-53
2022/01/24 11:06:32;;;;;;;;;;;;;;;21.79;25.37;97112.25;10464582;28;1979;-54
2022/01/24 11:11:32;;;;;;;;;;;;;;;21.78;24.86;97110.69;10455003;28;1847;-55
2022/01/24 11:16:33;;;;;;;;;;;;;;;21.72;24.59;97103.75;10460411;28;1828;-54
2022/01/24 11:21:33;;;;;;;;;;;;;;;21.70;24.74;97096.06;10465225;28;1772;-56
2022/01/24 11:26:35;;;;;;;;;;;;;;;21.80;25.66;97087.47;10445071;28;1977;-56
2022/01/24 11:31:40;;;;;;;;;;;;;;;21.88;26.39;97093.09;10457780;28;1848;-57
2022/01/24 11:36:41;;;;;;;;;;;;;;;21.78;25.63;97095.63;10464993;28;1808;-56
2022/01/24 11:41:43;;;;;;;;;;;;;;;21.81;26.01;97094.34;10463974;28;1841;-55
2022/01/24 11:46:48;;;;;;;;;;;;;;;21.77;25.11;97090.59;10465375;28;1971;-56
2022/01/24 11:51:50;;;;;;;;;;;;;;;21.78;26.30;97095.63;10458964;28;1799;-55
2022/01/24 11:56:51;;;;;;;;;;;;;;;21.75;25.95;97082.13;10460812;28;1830;-54
2022/01/24 12:02:07;;;;;;;;;;;;;;;21.75;26.29;97076.84;10453029;28;1789;-56
2022/01/24 12:07:18;;;;;;;;;;;;;;;21.72;25.81;97066.81;10443535;28;1955;-57
2022/01/24 12:12:37;;;;;;;;;;;;;;;21.76;26.29;97070.53;10449594;28;1824;-56
2022/01/24 12:17:44;;;;;;;;;;;;;;;21.78;26.40;97060.53;10449660;28;1809;-58
2022/01/24 12:22:49;;;;;;;;;;;;;;;21.78;25.96;97063.16;10449969;28;1928;-55
2022/01/24 12:28:25;;;;;;;;;;;;;;;21.81;26.54;97062.66;10447688;28;1949;-57
2022/01/24 12:33:39;;;;;;;;;;;;;;;21.81;26.69;97058.22;10400260;28;1866;-57
2022/01/24 12:38:43;;;;;;;;;;;;;;;21.85;26.59;97051.38;10454085;28;1900;-56
2022/01/24 12:43:57;;;;;;;;;;;;;;;21.91;26.87;97049.56;10449435;28;1969;-57
2022/01/24 12:48:58;;;;;;;;;;;;;;;21.96;26.77;97049.63;10453754;28;1886;-56
2022/01/24 12:53:58;;;;;;;;;;;;;;;21.98;26.89;97052.81;10447712;28;1910;-55
2022/01/24 12:58:59;;;;;;;;;;;;;;;22.01;26.68;97044.38;10440928;28;1913;-56
2022/01/24 13:04:10;;;;;;;;;;;;;;;22.02;26.97;97042.53;10453205;28;1930;-57
2022/01/24 13:09:14;;;;;;;;;;;;;;;22.02;26.90;97032.78;10449878;28;1843;-57
2022/01/24 13:14:21;;;;;;;;;;;;;;;22.01;26.69;97030.41;10459637;28;1777;-56
2022/01/24 13:24:40;;;;;;;;;;;;;;;22.23;26.58;97013.41;10454146;28;1965;-61
2022/01/24 13:29:41;;;;;;;;;;;;;;;22.60;26.00;97003.66;10467280;28;1840;-57
2022/01/24 13:34:41;;;;;;;;;;;;;;;22.63;25.91;97003.13;10460574;28;1805;-57
2022/01/24 13:39:41;;;;;;;;;;;;;;;22.49;26.25;97001.97;10460475;28;1853;-58
2022/01/24 13:44:42;;;;;;;;;;;;;;;22.43;26.53;96997.69;10462689;28;1959;-57
2022/01/24 13:49:44;;;;;;;;;;;;;;;22.42;26.77;96997.97;10461957;28;1781;-55
2022/01/24 13:54:44;;;;;;;;;;;;;;;22.39;26.34;96995.81;10456390;28;1908;-58
2022/01/24 13:59:45;;;;;;;;;;;;;;;22.30;24.91;96998.13;10458507;28;1784;-58
2022/01/24 14:04:49;;;;;;;;;;;;;;;22.24;26.20;97003.63;10460958;28;1902;-55
2022/01/24 14:10:03;;;;;;;;;;;;;;;22.23;24.63;97005.50;10454344;28;2022;-57
2022/01/24 14:15:09;;;;;;;;;;;;;;;22.21;25.30;97007.59;10461431;28;1844;-58
2022/01/24 14:20:10;;;;;;;;;;;;;;;22.26;25.41;97009.44;10455787;28;3046;-60
2022/01/24 14:25:22;;;;;;;;;;;;;;;22.26;25.90;97012.09;10464565;28;1969;-57
2022/01/24 14:30:26;;;;;;;;;;;;;;;22.29;25.75;97009.75;10456363;28;1780;-58
2022/01/24 14:35:28;;;;;;;;;;;;;;;22.27;26.30;97009.22;10458183;28;1812;-59
2022/01/24 14:40:46;;;;;;;;;;;;;;;22.25;26.24;97006.03;10451332;28;1974;-59
2022/01/24 14:45:47;;;;;;;;;;;;;;;22.19;25.64;97008.88;10452859;28;1973;-56
2022/01/24 14:50:47;;;;;;;;;;;;;;;22.20;26.57;97021.84;10447125;28;1836;-56
2022/01/24 14:55:48;;;;;;;;;;;;;;;22.20;25.58;97019.19;10456357;28;1817;-54
2022/01/24 15:00:48;;;;;;;;;;;;;;;22.16;26.55;97018.09;10454794;28;1542;-55
2022/01/24 15:05:49;;;;;;;;;;;;;;;22.15;26.49;97021.81;10460361;28;1957;-56
2022/01/24 15:10:49;;;;;;;;;;;;;;;22.15;26.41;97019.16;10452736;28;1422;-57
2022/01/24 15:16:01;;;;;;;;;;;;;;;22.13;26.02;97016.00;10453831;28;1856;-56
2022/01/24 15:26:20;;;;;;;;;;;;;;;22.12;26.03;97022.31;10453531;28;1910;-54
2022/01/24 15:31:21;;;;;;;;;;;;;;;22.10;26.75;97031.53;10451983;28;1861;-55
2022/01/24 15:36:22;;;;;;;;;;;;;;;22.10;26.22;97029.69;10453805;28;1748;-54
2022/01/24 15:41:23;;;;;;;;;;;;;;;22.08;25.23;97031.78;10450171;28;1792;-57
2022/01/24 15:51:43;;;;;;;;;;;;;;;21.95;24.89;97026.13;10439702;28;1838;-58
2022/01/24 16:01:44;;;;;;;;;;;;;;;21.86;24.47;97020.50;10444685;28;1777;-54
2022/01/24 16:06:44;;;;;;;;;;;;;;;21.79;24.20;97023.31;10451668;28;1977;-56
2022/01/24 16:11:45;;;;;;;;;;;;;;;21.81;25.14;97029.19;10459126;28;1919;-56
2022/01/24 16:16:45;;;;;;;;;;;;;;;21.77;24.26;97030.69;10452491;28;1753;-58
2022/01/24 16:21:59;;;;;;;;;;;;;;;21.72;24.37;97028.00;10460412;28;1853;-56
2022/01/24 16:26:59;;;;;;;;;;;;;;;21.69;24.49;97027.72;10455582;28;1930;-56
2022/01/24 16:31:59;;;;;;;;;;;;;;;21.67;24.22;97032.44;10451056;28;1953;-58
2022/01/24 16:37:06;;;;;;;;;;;;;;;21.79;24.82;97020.69;10451910;28;1773;-57
2022/01/24 16:42:13;;;;;;;;;;;;;;;21.71;24.63;97025.63;10451818;28;1900;-55
2022/01/24 16:47:14;;;;;;;;;;;;;;;21.73;25.39;97036.72;10450072;28;1906;-57
2022/01/24 16:52:15;;;;;;;;;;;;;;;21.77;25.13;97041.25;10456083;28;1804;-57
2022/01/24 16:57:18;;;;;;;;;;;;;;;21.82;25.45;97038.69;10461154;28;1967;-56
2022/01/24 17:02:18;;;;;;;;;;;;;;;21.81;24.55;97034.47;10461153;28;1853;-58
2022/01/24 17:07:19;;;;;;;;;;;;;;;21.89;25.32;97030.56;10459395;28;1980;-56
2022/01/24 17:12:25;;;;;;;;;;;;;;;21.98;26.67;97022.97;10459938;28;1863;-54
2022/01/24 17:17:26;;;;;;;;;;;;;;;21.88;25.68;97028.97;10443930;28;1830;-57
2022/01/24 17:22:26;;;;;;;;;;;;;;;21.80;24.61;97032.81;10456871;28;1891;-56
2022/01/24 17:27:26;;;;;;;;;;;;;;;21.76;24.83;97033.59;10453226;28;1949;-56
2022/01/24 17:32:28;;;;;;;;;;;;;;;21.71;25.04;97039.63;10455816;28;1855;-59
2022/01/24 17:37:28;;;;;;;;;;;;;;;21.71;24.81;97044.91;10454024;28;1943;-57
2022/01/24 17:42:29;;;;;;;;;;;;;;;21.70;24.98;97045.16;10454388;28;1789;-57
2022/01/24 17:47:30;;;;;;;;;;;;;;;21.67;25.09;97051.72;10455855;28;1967;-57
2022/01/24 17:52:30;;;;;;;;;;;;;;;21.65;25.21;97053.81;10455094;28;2301;-58
2022/01/24 17:57:31;;;;;;;;;;;;;;;21.68;25.67;97047.22;10455514;28;1837;-55
2022/01/24 18:02:31;;;;;;;;;;;;;;;21.64;25.73;97052.19;10455762;28;1702;-56
2022/01/24 18:07:32;;;;;;;;;;;;;;;21.64;25.48;97067.22;10456251;28;1961;-56
2022/01/24 18:12:32;;;;;;;;;;;;;;;21.62;24.84;97056.94;10451072;28;1830;-55
2022/01/24 18:17:33;;;;;;;;;;;;;;;21.58;25.75;97066.38;10451094;28;1785;-55
2022/01/24 18:22:34;;;;;;;;;;;;;;;21.62;24.98;97066.69;10449869;28;1859;-52
2022/01/24 18:27:35;;;;;;;;;;;;;;;21.57;24.81;97078.00;10454949;28;1898;-54
2022/01/24 18:32:35;;;;;;;;;;;;;;;21.61;25.13;97073.03;10450927;28;1895;-58
2022/01/24 18:37:35;;;;;;;;;;;;;;;21.58;25.32;97074.31;10457326;28;1812;-56
2022/01/24 18:42:36;;;;;;;;;;;;;;;21.59;25.32;97075.09;10463432;28;1828;-57
2022/01/24 18:47:37;;;;;;;;;;;;;;;21.65;26.31;97071.47;10456504;28;1973;-57
2022/01/24 18:52:37;;;;;;;;;;;;;;;21.62;25.00;97066.69;10438587;28;1926;-56
2022/01/24 18:57:37;;;;;;;;;;;;;;;21.60;25.60;97069.56;10458276;28;1839;-54
2022/01/24 19:02:38;;;;;;;;;;;;;;;21.57;25.60;97062.16;10451257;28;1859;-55
2022/01/24 19:07:38;;;;;;;;;;;;;;;21.58;25.08;97070.84;10449596;28;1965;-55
2022/01/24 19:12:42;;;;;;;;;;;;;;;21.58;25.95;97065.59;10448766;28;1709;-56
2022/01/24 19:17:45;;;;;;;;;;;;;;;21.57;24.57;97066.66;10432227;28;1839;-56
2022/01/24 19:28:05;;;;;;;;;;;;;;;21.61;25.72;97073.81;10442282;28;1918;-56
2022/01/24 19:33:12;;;;;;;;;;;;;;;21.59;24.70;97075.09;10441163;28;1820;-53
2022/01/24 19:38:12;;;;;;;;;;;;;;;21.52;24.63;97075.28;10440712;28;1913;-55
2022/01/24 19:43:13;;;;;;;;;;;;;;;21.50;24.58;97068.66;10454671;28;1835;-56
2022/01/24 19:48:16;;;;;;;;;;;;;;;21.38;25.26;97079.38;10460121;28;1967;-56
2022/01/24 19:53:19;;;;;;;;;;;;;;;21.24;24.97;97077.34;10460238;28;1853;-57
2022/01/24 19:58:24;;;;;;;;;;;;;;;21.11;24.87;97083.78;10464360;28;1806;-57
2022/01/24 20:03:25;;;;;;;;;;;;;;;20.99;25.15;97081.22;10459329;28;1858;-56
2022/01/24 20:08:25;;;;;;;;;;;;;;;21.07;25.05;97072.13;10455856;28;1965;-57
2022/01/24 20:13:25;;;;;;;;;;;;;;;21.14;24.83;97072.75;10453143;28;1861;-57
2022/01/24 20:18:26;;;;;;;;;;;;;;;21.25;25.23;97073.66;10450770;28;1811;-58
2022/01/24 20:23:26;;;;;;;;;;;;;;;21.24;24.74;97066.78;10449691;28;1894;-55
2022/01/24 20:28:28;;;;;;;;;;;;;;;21.26;24.73;97070.78;10445346;28;1971;-56
2022/01/24 20:33:29;;;;;;;;;;;;;;;21.29;24.32;97066.88;10446849;28;1949;-53
2022/01/24 20:38:30;;;;;;;;;;;;;;;21.30;24.63;97068.44;10454682;28;1815;-56
2022/01/24 20:43:30;;;;;;;;;;;;;;;21.30;24.42;97073.72;10450320;28;1754;-55
2022/01/24 20:48:31;;;;;;;;;;;;;;;21.32;24.65;97072.44;10443248;28;1913;-57
2022/01/24 20:53:31;;;;;;;;;;;;;;;21.33;24.63;97055.56;10436695;28;1821;-54
2022/01/24 20:58:32;;;;;;;;;;;;;;;21.33;24.22;97065.31;10443760;28;1818;-58
2022/01/24 21:03:32;;;;;;;;;;;;;;;21.32;24.40;97063.72;10440900;28;1690;-56
2022/01/24 21:08:33;;;;;;;;;;;;;;;21.32;24.44;97069.00;10440706;28;1902;-54
2022/01/24 21:18:49;;;;;;;;;;;;;;;21.31;24.20;97060.28;10436244;28;1822;-55
2022/01/24 21:23:49;;;;;;;;;;;;;;;21.30;24.48;97058.69;10439579;28;1918;-56
2022/01/24 21:28:50;;;;;;;;;;;;;;;21.30;24.37;97056.06;10437936;28;1793;-54
2022/01/24 21:39:03;;;;;;;;;;;;;;;21.29;24.08;97040.50;10440337;28;1789;-56
2022/01/24 21:44:03;;;;;;;;;;;;;;;21.30;24.42;97037.59;10442782;28;1945;-57
2022/01/24 21:49:04;;;;;;;;;;;;;;;21.30;24.37;97040.25;10446651;28;1774;-56
2022/01/24 21:54:06;;;;;;;;;;;;;;;21.30;24.24;97036.78;10441323;28;1956;-56
2022/01/24 21:59:06;;;;;;;;;;;;;;;21.30;24.49;97034.16;10462013;28;1733;-56
2022/01/24 22:04:07;;;;;;;;;;;;;;;21.30;24.42;97034.16;10456773;28;1968;-58
2022/01/24 22:09:08;;;;;;;;;;;;;;;21.29;24.21;97035.22;10457707;28;1782;-55
2022/01/24 22:14:08;;;;;;;;;;;;;;;21.28;24.24;97030.97;10454713;28;1861;-57
2022/01/24 22:19:09;;;;;;;;;;;;;;;21.28;24.28;97042.31;10454497;28;1834;-55
2022/01/24 22:24:09;;;;;;;;;;;;;;;21.28;24.05;97033.63;10453204;28;1918;-56
2022/01/24 22:29:10;;;;;;;;;;;;;;;21.27;24.28;97027.53;10452281;28;1847;-57
2022/01/24 22:34:10;;;;;;;;;;;;;;;21.26;23.95;97033.06;10457096;28;1864;-58
2022/01/24 22:39:10;;;;;;;;;;;;;;;21.25;23.87;97034.09;10454098;28;1824;-57
2022/01/24 22:44:11;;;;;;;;;;;;;;;21.26;24.28;97027.78;10450453;28;2332;-54
2022/01/24 22:49:11;;;;;;;;;;;;;;;21.23;23.99;97028.25;10452637;28;1772;-55
2022/01/24 22:54:12;;;;;;;;;;;;;;;21.27;24.15;97029.41;10453304;28;1872;-53
2022/01/24 22:59:12;;;;;;;;;;;;;;;21.26;24.25;97038.34;10453896;28;1765;-55
2022/01/24 23:04:13;;;;;;;;;;;;;;;21.26;23.73;97033.06;10454419;28;1995;-56
2022/01/24 23:09:13;;;;;;;;;;;;;;;21.22;24.33;97035.41;10454484;28;1916;-54
2022/01/24 23:19:33;;;;;;;;;;;;;;;21.26;23.84;97038.34;10452907;28;1809;-56
2022/01/24 23:24:40;;;;;;;;;;;;;;;21.23;23.65;97044.09;10455826;28;1886;-56
2022/01/24 23:29:41;;;;;;;;;;;;;;;21.24;24.10;97045.69;10448506;28;1934;-57
2022/01/24 23:39:47;;;;;;;;;;;;;;;21.24;24.01;97040.41;10454307;28;1876;-57
2022/01/24 23:44:47;;;;;;;;;;;;;;;21.26;23.90;97044.41;10457788;28;1947;-57
2022/01/24 23:49:48;;;;;;;;;;;;;;;21.25;23.96;97047.28;10456088;28;1853;-56
2022/01/24 23:54:48;;;;;;;;;;;;;;;21.25;24.01;97048.09;10454798;28;2276;-56
